sensor_id;sensor_type;location;lat;lon;timestamp;pressure;altitude;pressure_sealevel;temperature;humidity
31483;BME280;18103;52.246;8.052;2023-03-25T00:01:10;98959.78;;;8.78;81.51
31483;BME280;18103;52.246;8.052;2023-03-25T00:03:40;98960.19;;;8.83;81.64
31483;BME280;18103;52.246;8.052;2023-03-25T00:06:14;98949.09;;;8.80;81.45
31483;BME280;18103;52.246;8.052;2023-03-25T00:08:42;98952.44;;;8.82;81.62
31483;BME280;18103;52.246;8.052;2023-03-25T00:11:09;98949.09;;;8.80;82.08
31483;BME280;18103;52.246;8.052;2023-03-25T00:13:37;98952.44;;;8.82;81.92
31483;BME280;18103;52.246;8.052;2023-03-25T00:16:03;98956.97;;;8.89;81.52
31483;BME280;18103;52.246;8.052;2023-03-25T00:18:31;98965.44;;;8.83;82.33
31483;BME280;18103;52.246;8.052;2023-03-25T00:21:02;98959.38;;;8.83;82.41
31483;BME280;18103;52.246;8.052;2023-03-25T00:23:28;98960.63;;;8.79;82.99
31483;BME280;18103;52.246;8.052;2023-03-25T00:25:54;98987.47;;;8.72;84.03
31483;BME280;18103;52.246;8.052;2023-03-25T00:28:30;98978.06;;;8.70;84.67
31483;BME280;18103;52.246;8.052;2023-03-25T00:31:09;98972.81;;;8.60;85.50
31483;BME280;18103;52.246;8.052;2023-03-25T00:33:35;98975.75;;;8.57;85.93
31483;BME280;18103;52.246;8.052;2023-03-25T00:36:01;98968.97;;;8.54;86.32
31483;BME280;18103;52.246;8.052;2023-03-25T00:38:31;98967.72;;;8.49;86.30
31483;BME280;18103;52.246;8.052;2023-03-25T00:41:26;98966.19;;;8.56;85.89
31483;BME280;18103;52.246;8.052;2023-03-25T00:43:55;98958.06;;;8.49;85.90
31483;BME280;18103;52.246;8.052;2023-03-25T00:46:22;98958.88;;;8.50;86.11
31483;BME280;18103;52.246;8.052;2023-03-25T00:48:49;98955.25;;;8.61;85.34
31483;BME280;18103;52.246;8.052;2023-03-25T00:51:15;98950.69;;;8.53;86.16
31483;BME280;18103;52.246;8.052;2023-03-25T00:53:49;98959.31;;;8.45;86.46
31483;BME280;18103;52.246;8.052;2023-03-25T00:56:17;98965.53;;;8.54;85.65
31483;BME280;18103;52.246;8.052;2023-03-25T00:58:43;98964.97;;;8.50;85.34
31483;BME280;18103;52.246;8.052;2023-03-25T01:01:10;98965.25;;;8.47;85.67
31483;BME280;18103;52.246;8.052;2023-03-25T01:03:40;98961.66;;;8.48;85.48
31483;BME280;18103;52.246;8.052;2023-03-25T01:06:14;98964.69;;;8.53;85.42
31483;BME280;18103;52.246;8.052;2023-03-25T01:08:41;98956.41;;;8.48;85.60
31483;BME280;18103;52.246;8.052;2023-03-25T01:11:20;98959.56;;;8.52;85.28
31483;BME280;18103;52.246;8.052;2023-03-25T01:13:48;98963.59;;;8.46;85.32
31483;BME280;18103;52.246;8.052;2023-03-25T01:16:17;98963.19;;;8.51;84.92
31483;BME280;18103;52.246;8.052;2023-03-25T01:18:43;98948.91;;;8.53;85.22
31483;BME280;18103;52.246;8.052;2023-03-25T01:21:08;98951.56;;;8.53;85.35
31483;BME280;18103;52.246;8.052;2023-03-25T01:23:34;98949.75;;;8.54;85.17
31483;BME280;18103;52.246;8.052;2023-03-25T01:26:00;98953.63;;;8.50;85.00
31483;BME280;18103;52.246;8.052;2023-03-25T01:28:28;98949.44;;;8.57;84.75
31483;BME280;18103;52.246;8.052;2023-03-25T01:31:05;98947.53;;;8.59;84.80
31483;BME280;18103;52.246;8.052;2023-03-25T01:33:31;98944.47;;;8.54;84.44
31483;BME280;18103;52.246;8.052;2023-03-25T01:36:00;98951.56;;;8.53;84.23
31483;BME280;18103;52.246;8.052;2023-03-25T01:38:28;98949.44;;;8.57;83.83
31483;BME280;18103;52.246;8.052;2023-03-25T01:40:57;98947.53;;;8.59;83.75
31483;BME280;18103;52.246;8.052;2023-03-25T01:43:22;98948.78;;;8.55;83.62
31483;BME280;18103;52.246;8.052;2023-03-25T01:45:48;98949.31;;;8.59;83.31
31483;BME280;18103;52.246;8.052;2023-03-25T01:48:20;98937.13;;;8.57;83.17
31483;BME280;18103;52.246;8.052;2023-03-25T01:53:36;98941.41;;;8.59;83.12
31483;BME280;18103;52.246;8.052;2023-03-25T01:56:05;98944.03;;;8.59;83.15
31483;BME280;18103;52.246;8.052;2023-03-25T01:58:39;98953.59;;;8.60;82.51
31483;BME280;18103;52.246;8.052;2023-03-25T02:01:06;98925.91;;;8.65;82.82
31483;BME280;18103;52.246;8.052;2023-03-25T02:03:39;98929.78;;;8.61;82.87
31483;BME280;18103;52.246;8.052;2023-03-25T02:06:31;98921.91;;;8.61;82.40
31483;BME280;18103;52.246;8.052;2023-03-25T02:08:59;98933.94;;;8.64;81.97
31483;BME280;18103;52.246;8.052;2023-03-25T02:11:26;98923.72;;;8.61;81.83
31483;BME280;18103;52.246;8.052;2023-03-25T02:13:54;98927.31;;;8.60;82.10
31483;BME280;18103;52.246;8.052;2023-03-25T02:19:06;98924.81;;;8.58;81.46
31483;BME280;18103;52.246;8.052;2023-03-25T02:25:14;98936.59;;;8.54;81.87
31483;BME280;18103;52.246;8.052;2023-03-25T02:32:59;98934.50;;;8.57;81.99
31483;BME280;18103;52.246;8.052;2023-03-25T02:38:46;98928.13;;;8.60;80.75
31483;BME280;18103;52.246;8.052;2023-03-25T02:43:52;98930.75;;;8.60;80.95
31483;BME280;18103;52.246;8.052;2023-03-25T02:46:22;98923.84;;;8.59;81.19
31483;BME280;18103;52.246;8.052;2023-03-25T02:48:56;98929.13;;;8.59;80.83
31483;BME280;18103;52.246;8.052;2023-03-25T02:51:31;98928.81;;;8.62;80.83
31483;BME280;18103;52.246;8.052;2023-03-25T02:54:09;98911.94;;;8.65;80.09
31483;BME280;18103;52.246;8.052;2023-03-25T02:56:40;98923.16;;;8.57;80.85
31483;BME280;18103;52.246;8.052;2023-03-25T02:59:09;98910.00;;;8.57;80.90
31483;BME280;18103;52.246;8.052;2023-03-25T03:01:38;98908.75;;;8.61;80.76
31483;BME280;18103;52.246;8.052;2023-03-25T03:04:05;98904.44;;;8.60;80.11
31483;BME280;18103;52.246;8.052;2023-03-25T03:06:39;98901.16;;;8.58;80.04
31483;BME280;18103;52.246;8.052;2023-03-25T03:11:49;98906.25;;;8.60;79.85
31483;BME280;18103;52.246;8.052;2023-03-25T03:20:25;98897.78;;;8.66;79.26
31483;BME280;18103;52.246;8.052;2023-03-25T03:23:14;98896.56;;;8.60;79.21
31483;BME280;18103;52.246;8.052;2023-03-25T03:28:50;98896.97;;;8.65;79.02
31483;BME280;18103;52.246;8.052;2023-03-25T03:31:30;98891.03;;;8.63;78.80
31483;BME280;18103;52.246;8.052;2023-03-25T03:34:11;98897.78;;;8.66;79.13
31483;BME280;18103;52.246;8.052;2023-03-25T03:36:46;98893.50;;;8.65;78.71
31483;BME280;18103;52.246;8.052;2023-03-25T03:39:35;98889.38;;;8.62;78.64
31483;BME280;18103;52.246;8.052;2023-03-25T03:42:32;98888.09;;;8.66;77.33
31483;BME280;18103;52.246;8.052;2023-03-25T03:45:09;98895.03;;;8.57;78.29
31483;BME280;18103;52.246;8.052;2023-03-25T03:47:44;98899.03;;;8.62;78.10
31483;BME280;18103;52.246;8.052;2023-03-25T03:50:19;98898.47;;;8.68;77.73
31483;BME280;18103;52.246;8.052;2023-03-25T03:53:14;98893.09;;;8.60;78.26
31483;BME280;18103;52.246;8.052;2023-03-25T03:55:55;98890.19;;;8.63;77.89
31483;BME280;18103;52.246;8.052;2023-03-25T03:58:30;98888.97;;;8.57;77.63
31483;BME280;18103;52.246;8.052;2023-03-25T04:01:02;98890.63;;;8.58;77.70
31483;BME280;18103;52.246;8.052;2023-03-25T04:03:33;98895.47;;;8.53;78.11
31483;BME280;18103;52.246;8.052;2023-03-25T04:06:10;98895.03;;;8.57;77.39
31483;BME280;18103;52.246;8.052;2023-03-25T04:08:48;98898.66;;;8.56;77.88
31483;BME280;18103;52.246;8.052;2023-03-25T04:11:26;98891.06;;;8.53;78.36
31483;BME280;18103;52.246;8.052;2023-03-25T04:13:58;98896.59;;;8.50;79.07
31483;BME280;18103;52.246;8.052;2023-03-25T04:16:27;98899.78;;;8.54;79.56
31483;BME280;18103;52.246;8.052;2023-03-25T04:18:56;98897.84;;;8.46;80.02
31483;BME280;18103;52.246;8.052;2023-03-25T04:21:24;98908.38;;;8.46;80.21
31483;BME280;18103;52.246;8.052;2023-03-25T04:23:50;98901.47;;;8.45;80.19
31483;BME280;18103;52.246;8.052;2023-03-25T04:26:16;98911.53;;;8.50;80.80
31483;BME280;18103;52.246;8.052;2023-03-25T04:28:45;98916.13;;;8.38;81.20
31483;BME280;18103;52.246;8.052;2023-03-25T04:31:15;98907.09;;;8.40;81.20
31483;BME280;18103;52.246;8.052;2023-03-25T04:33:44;98900.22;;;8.39;81.56
31483;BME280;18103;52.246;8.052;2023-03-25T04:36:13;98908.34;;;8.36;81.23
31483;BME280;18103;52.246;8.052;2023-03-25T04:38:40;98900.72;;;8.43;81.11
31483;BME280;18103;52.246;8.052;2023-03-25T04:41:10;98900.22;;;8.39;81.61
31483;BME280;18103;52.246;8.052;2023-03-25T04:43:38;98893.44;;;8.37;81.29
31483;BME280;18103;52.246;8.052;2023-03-25T04:46:05;98899.66;;;8.36;81.61
31483;BME280;18103;52.246;8.052;2023-03-25T04:48:33;98909.88;;;8.39;81.04
31483;BME280;18103;52.246;8.052;2023-03-25T04:51:00;98903.66;;;8.40;80.70
31483;BME280;18103;52.246;8.052;2023-03-25T04:53:29;98894.94;;;8.39;80.90
31483;BME280;18103;52.246;8.052;2023-03-25T04:55:54;98905.88;;;8.35;81.06
31483;BME280;18103;52.246;8.052;2023-03-25T04:58:20;98889.13;;;8.36;80.79
31483;BME280;18103;52.246;8.052;2023-03-25T05:00:50;98906.00;;;8.33;81.01
31483;BME280;18103;52.246;8.052;2023-03-25T05:03:17;98893.03;;;8.32;80.62
31483;BME280;18103;52.246;8.052;2023-03-25T05:05:51;98888.16;;;8.37;80.54
31483;BME280;18103;52.246;8.052;2023-03-25T05:08:20;98901.88;;;8.31;80.70
31483;BME280;18103;52.246;8.052;2023-03-25T05:10:46;98900.09;;;8.31;80.49
31483;BME280;18103;52.246;8.052;2023-03-25T05:13:14;98905.34;;;8.31;81.02
31483;BME280;18103;52.246;8.052;2023-03-25T05:15:40;98896.38;;;8.24;82.68
31483;BME280;18103;52.246;8.052;2023-03-25T05:18:11;98892.19;;;8.31;82.87
31483;BME280;18103;52.246;8.052;2023-03-25T05:20:41;98892.50;;;8.28;82.49
31483;BME280;18103;52.246;8.052;2023-03-25T05:23:08;98894.41;;;8.26;82.56
31483;BME280;18103;52.246;8.052;2023-03-25T05:25:48;98895.00;;;8.20;81.80
31483;BME280;18103;52.246;8.052;2023-03-25T05:28:14;98911.28;;;8.23;82.22
31483;BME280;18103;52.246;8.052;2023-03-25T05:30:44;98899.41;;;8.19;81.85
31483;BME280;18103;52.246;8.052;2023-03-25T05:33:14;98903.56;;;8.22;81.70
31483;BME280;18103;52.246;8.052;2023-03-25T05:35:42;98909.50;;;8.24;81.67
31483;BME280;18103;52.246;8.052;2023-03-25T05:38:08;98893.19;;;8.20;81.58
31483;BME280;18103;52.246;8.052;2023-03-25T05:40:37;98899.13;;;8.22;81.26
31483;BME280;18103;52.246;8.052;2023-03-25T05:43:06;98903.41;;;8.23;81.33
31483;BME280;18103;52.246;8.052;2023-03-25T05:45:32;98908.00;;;8.21;81.51
31483;BME280;18103;52.246;8.052;2023-03-25T05:48:00;98910.03;;;8.28;81.39
31483;BME280;18103;52.246;8.052;2023-03-25T05:50:25;98900.63;;;8.25;81.60
31483;BME280;18103;52.246;8.052;2023-03-25T05:52:55;98902.16;;;8.28;81.21
31483;BME280;18103;52.246;8.052;2023-03-25T05:55:24;98908.38;;;8.27;81.00
31483;BME280;18103;52.246;8.052;2023-03-25T05:57:52;98912.13;;;8.24;81.20
31483;BME280;18103;52.246;8.052;2023-03-25T06:00:18;98920.56;;;8.28;81.27
31483;BME280;18103;52.246;8.052;2023-03-25T06:02:47;98918.19;;;8.34;80.29
31483;BME280;18103;52.246;8.052;2023-03-25T06:05:14;98917.09;;;8.37;80.42
31483;BME280;18103;52.246;8.052;2023-03-25T06:07:47;98915.84;;;8.31;80.49
31483;BME280;18103;52.246;8.052;2023-03-25T06:10:14;98917.25;;;8.35;80.71
31483;BME280;18103;52.246;8.052;2023-03-25T06:12:44;98920.69;;;8.36;80.89
31483;BME280;18103;52.246;8.052;2023-03-25T06:15:11;98916.25;;;8.36;80.65
31483;BME280;18103;52.246;8.052;2023-03-25T06:17:40;98919.00;;;8.35;81.71
31483;BME280;18103;52.246;8.052;2023-03-25T06:20:10;98925.38;;;8.32;82.02
31483;BME280;18103;52.246;8.052;2023-03-25T06:22:40;98930.09;;;8.29;82.16
31483;BME280;18103;52.246;8.052;2023-03-25T06:25:14;98927.47;;;8.29;81.35
31483;BME280;18103;52.246;8.052;2023-03-25T06:27:42;98925.53;;;8.31;81.41
31483;BME280;18103;52.246;8.052;2023-03-25T06:30:12;98925.25;;;8.34;81.28
31483;BME280;18103;52.246;8.052;2023-03-25T06:32:40;98921.38;;;8.38;80.96
31483;BME280;18103;52.246;8.052;2023-03-25T06:35:07;98919.00;;;8.35;81.69
31483;BME280;18103;52.246;8.052;2023-03-25T06:37:33;98929.81;;;8.32;81.91
31483;BME280;18103;52.246;8.052;2023-03-25T06:40:02;98932.56;;;8.40;81.33
31483;BME280;18103;52.246;8.052;2023-03-25T06:42:32;98931.34;;;8.34;81.63
31483;BME280;18103;52.246;8.052;2023-03-25T06:44:57;98923.59;;;8.43;81.38
31483;BME280;18103;52.246;8.052;2023-03-25T06:47:25;98935.06;;;8.42;81.46
31483;BME280;18103;52.246;8.052;2023-03-25T06:49:51;98925.50;;;8.40;81.29
31483;BME280;18103;52.246;8.052;2023-03-25T06:52:16;98923.44;;;8.44;81.29
31483;BME280;18103;52.246;8.052;2023-03-25T06:54:42;98930.91;;;8.39;81.46
31483;BME280;18103;52.246;8.052;2023-03-25T06:57:10;98942.00;;;8.43;81.09
31483;BME280;18103;52.246;8.052;2023-03-25T06:59:38;98920.81;;;8.44;81.64
31483;BME280;18103;52.246;8.052;2023-03-25T07:02:03;98925.81;;;8.47;80.94
31483;BME280;18103;52.246;8.052;2023-03-25T07:04:31;98927.47;;;8.48;81.02
31483;BME280;18103;52.246;8.052;2023-03-25T07:06:56;98925.78;;;8.57;80.76
31483;BME280;18103;52.246;8.052;2023-03-25T07:09:22;98930.63;;;8.52;80.25
31483;BME280;18103;52.246;8.052;2023-03-25T07:11:47;98926.59;;;8.57;80.47
31483;BME280;18103;52.246;8.052;2023-03-25T07:14:12;98923.44;;;8.54;80.63
31483;BME280;18103;52.246;8.052;2023-03-25T07:16:38;98919.69;;;8.56;80.29
31483;BME280;18103;52.246;8.052;2023-03-25T07:19:03;98935.03;;;8.61;80.10
31483;BME280;18103;52.246;8.052;2023-03-25T07:21:28;98926.75;;;8.56;80.22
31483;BME280;18103;52.246;8.052;2023-03-25T07:23:54;98930.59;;;8.62;80.23
31483;BME280;18103;52.246;8.052;2023-03-25T07:26:20;98923.56;;;8.62;80.56
31483;BME280;18103;52.246;8.052;2023-03-25T07:28:47;98937.22;;;8.66;80.19
31483;BME280;18103;52.246;8.052;2023-03-25T07:31:14;98939.31;;;8.72;80.21
31483;BME280;18103;52.246;8.052;2023-03-25T07:33:40;98947.50;;;8.69;80.58
31483;BME280;18103;52.246;8.052;2023-03-25T07:36:07;98927.56;;;8.66;80.42
31483;BME280;18103;52.246;8.052;2023-03-25T07:38:33;98937.38;;;8.64;80.46
31483;BME280;18103;52.246;8.052;2023-03-25T07:41:06;98929.50;;;8.64;80.82
31483;BME280;18103;52.246;8.052;2023-03-25T07:43:32;98932.56;;;8.60;80.45
31483;BME280;18103;52.246;8.052;2023-03-25T07:45:57;98927.97;;;8.62;80.52
31483;BME280;18103;52.246;8.052;2023-03-25T07:48:25;98931.59;;;8.61;80.30
31483;BME280;18103;52.246;8.052;2023-03-25T07:50:52;98933.38;;;8.60;79.83
31483;BME280;18103;52.246;8.052;2023-03-25T07:53:18;98934.22;;;8.61;79.88
31483;BME280;18103;52.246;8.052;2023-03-25T07:55:44;98939.34;;;8.62;80.59
31483;BME280;18103;52.246;8.052;2023-03-25T07:58:15;98932.69;;;8.68;80.46
31483;BME280;18103;52.246;8.052;2023-03-25T08:00:40;98937.22;;;8.66;79.94
31483;BME280;18103;52.246;8.052;2023-03-25T08:03:06;98934.88;;;8.72;80.07
31483;BME280;18103;52.246;8.052;2023-03-25T08:05:31;98945.94;;;8.76;79.97
31483;BME280;18103;52.246;8.052;2023-03-25T08:07:59;98940.53;;;8.78;79.94
31483;BME280;18103;52.246;8.052;2023-03-25T08:10:29;98945.34;;;8.82;79.95
31483;BME280;18103;52.246;8.052;2023-03-25T08:12:54;98940.75;;;8.94;79.40
31483;BME280;18103;52.246;8.052;2023-03-25T08:15:20;98927.72;;;9.02;79.13
31483;BME280;18103;52.246;8.052;2023-03-25T08:17:52;98932.28;;;9.00;79.10
31483;BME280;18103;52.246;8.052;2023-03-25T08:20:20;98931.91;;;9.13;79.00
31483;BME280;18103;52.246;8.052;2023-03-25T08:22:46;98943.97;;;9.16;78.08
31483;BME280;18103;52.246;8.052;2023-03-25T08:25:12;98952.56;;;9.18;78.14
31483;BME280;18103;52.246;8.052;2023-03-25T08:27:40;98941.50;;;9.14;77.77
31483;BME280;18103;52.246;8.052;2023-03-25T08:30:08;98949.94;;;9.18;77.49
31483;BME280;18103;52.246;8.052;2023-03-25T08:32:34;98952.69;;;9.16;77.93
31483;BME280;18103;52.246;8.052;2023-03-25T08:35:00;98947.53;;;9.24;77.82
31483;BME280;18103;52.246;8.052;2023-03-25T08:37:25;98939.47;;;9.26;77.29
31483;BME280;18103;52.246;8.052;2023-03-25T08:39:53;98942.50;;;9.31;77.16
31483;BME280;18103;52.246;8.052;2023-03-25T08:42:20;98940.56;;;9.33;75.99
31483;BME280;18103;52.246;8.052;2023-03-25T08:44:45;98936.22;;;9.42;76.16
31483;BME280;18103;52.246;8.052;2023-03-25T08:47:11;98954.41;;;9.35;75.48
31483;BME280;18103;52.246;8.052;2023-03-25T08:49:36;98948.00;;;9.38;75.73
31483;BME280;18103;52.246;8.052;2023-03-25T08:52:01;98948.63;;;9.32;74.57
31483;BME280;18103;52.246;8.052;2023-03-25T08:54:32;98962.59;;;9.32;75.01
31483;BME280;18103;52.246;8.052;2023-03-25T08:56:57;98972.53;;;9.38;74.84
31483;BME280;18103;52.246;8.052;2023-03-25T08:59:25;98966.50;;;9.28;74.27
31483;BME280;18103;52.246;8.052;2023-03-25T09:01:51;98968.53;;;9.34;74.11
31483;BME280;18103;52.246;8.052;2023-03-25T09:04:16;98967.88;;;9.32;73.22
31483;BME280;18103;52.246;8.052;2023-03-25T09:06:45;98967.66;;;9.44;72.75
31483;BME280;18103;52.246;8.052;2023-03-25T09:09:14;98953.53;;;9.45;73.17
31483;BME280;18103;52.246;8.052;2023-03-25T09:11:44;98959.63;;;9.45;73.12
31483;BME280;18103;52.246;8.052;2023-03-25T09:14:09;98948.28;;;9.63;73.37
31483;BME280;18103;52.246;8.052;2023-03-25T09:16:35;98961.41;;;9.72;73.13
31483;BME280;18103;52.246;8.052;2023-03-25T09:19:01;98963.25;;;9.62;72.06
31483;BME280;18103;52.246;8.052;2023-03-25T09:21:29;98957.97;;;9.62;72.30
31483;BME280;18103;52.246;8.052;2023-03-25T09:23:57;98933.00;;;9.66;72.15
31483;BME280;18103;52.246;8.052;2023-03-25T09:26:23;98955.13;;;9.73;71.80
31483;BME280;18103;52.246;8.052;2023-03-25T09:28:50;98960.13;;;9.76;72.05
31483;BME280;18103;52.246;8.052;2023-03-25T09:31:17;98953.75;;;9.69;71.69
31483;BME280;18103;52.246;8.052;2023-03-25T09:33:45;98953.34;;;9.74;72.13
31483;BME280;18103;52.246;8.052;2023-03-25T09:36:11;98955.50;;;9.79;72.65
31483;BME280;18103;52.246;8.052;2023-03-25T09:38:37;98952.56;;;9.82;73.52
31483;BME280;18103;52.246;8.052;2023-03-25T09:41:15;98957.84;;;9.82;72.84
31483;BME280;18103;52.246;8.052;2023-03-25T09:44:21;98955.75;;;9.85;72.95
31483;BME280;18103;52.246;8.052;2023-03-25T09:46:42;98966.72;;;9.81;72.71
31483;BME280;18103;52.246;8.052;2023-03-25T09:49:21;98965.75;;;9.82;73.13
31483;BME280;18103;52.246;8.052;2023-03-25T09:51:49;98966.19;;;9.77;73.12
31483;BME280;18103;52.246;8.052;2023-03-25T09:56:51;98980.91;;;9.80;72.76
31483;BME280;18103;52.246;8.052;2023-03-25T09:59:26;98971.03;;;9.82;73.62
31483;BME280;18103;52.246;8.052;2023-03-25T10:02:01;98967.94;;;9.68;73.69
31483;BME280;18103;52.246;8.052;2023-03-25T10:23:49;99014.97;;;9.35;82.83
31483;BME280;18103;52.246;8.052;2023-03-25T10:26:14;99021.75;;;9.38;83.05
31483;BME280;18103;52.246;8.052;2023-03-25T10:28:49;99013.94;;;9.46;82.90
31483;BME280;18103;52.246;8.052;2023-03-25T10:31:19;99009.59;;;9.55;82.51
31483;BME280;18103;52.246;8.052;2023-03-25T10:33:56;98996.31;;;9.74;82.04
31483;BME280;18103;52.246;8.052;2023-03-25T10:36:43;99014.00;;;9.64;80.52
31483;BME280;18103;52.246;8.052;2023-03-25T10:39:18;99012.19;;;9.65;80.81
31483;BME280;18103;52.246;8.052;2023-03-25T10:41:48;99000.88;;;9.54;80.55
31483;BME280;18103;52.246;8.052;2023-03-25T10:44:16;99013.69;;;9.67;80.43
31483;BME280;18103;52.246;8.052;2023-03-25T10:46:51;99001.25;;;9.59;80.71
31483;BME280;18103;52.246;8.052;2023-03-25T10:49:26;98986.81;;;9.64;80.86
31483;BME280;18103;52.246;8.052;2023-03-25T10:51:53;99001.88;;;9.71;80.74
31483;BME280;18103;52.246;8.052;2023-03-25T10:54:24;98989.44;;;9.64;80.35
31483;BME280;18103;52.246;8.052;2023-03-25T10:56:52;99003.00;;;9.69;79.27
31483;BME280;18103;52.246;8.052;2023-03-25T11:01:55;99000.63;;;9.75;79.82
31483;BME280;18103;52.246;8.052;2023-03-25T11:04:36;98998.50;;;9.79;79.29
31483;BME280;18103;52.246;8.052;2023-03-25T11:07:18;99004.00;;;9.86;78.72
31483;BME280;18103;52.246;8.052;2023-03-25T11:09:44;99002.72;;;9.90;78.51
31483;BME280;18103;52.246;8.052;2023-03-25T11:12:10;98997.94;;;10.03;79.19
31483;BME280;18103;52.246;8.052;2023-03-25T11:14:38;98994.09;;;10.16;78.95
31483;BME280;18103;52.246;8.052;2023-03-25T11:17:10;98987.50;;;10.20;78.04
31483;BME280;18103;52.246;8.052;2023-03-25T11:19:56;98982.94;;;10.40;77.64
31483;BME280;18103;52.246;8.052;2023-03-25T11:22:29;98982.63;;;10.43;77.45
31483;BME280;18103;52.246;8.052;2023-03-25T11:25:07;98979.56;;;10.56;77.31
31483;BME280;18103;52.246;8.052;2023-03-25T11:27:46;98985.63;;;10.74;76.94
31483;BME280;18103;52.246;8.052;2023-03-25T11:30:17;98981.84;;;10.77;74.78
31483;BME280;18103;52.246;8.052;2023-03-25T11:32:59;98973.50;;;10.82;75.27
31483;BME280;18103;52.246;8.052;2023-03-25T11:35:31;98978.25;;;10.78;76.88
31483;BME280;18103;52.246;8.052;2023-03-25T11:38:13;98972.03;;;10.87;76.11
31483;BME280;18103;52.246;8.052;2023-03-25T11:40:50;98975.00;;;10.92;75.82
31483;BME280;18103;52.246;8.052;2023-03-25T11:43:22;98972.25;;;11.02;76.70
31483;BME280;18103;52.246;8.052;2023-03-25T11:45:51;98968.91;;;10.92;76.35
31483;BME280;18103;52.246;8.052;2023-03-25T11:48:22;98980.31;;;10.66;78.33
31483;BME280;18103;52.246;8.052;2023-03-25T11:50:53;98980.44;;;10.38;79.61
31483;BME280;18103;52.246;8.052;2023-03-25T11:53:20;98973.13;;;10.14;80.64
31483;BME280;18103;52.246;8.052;2023-03-25T11:55:50;98988.50;;;10.01;81.38
31483;BME280;18103;52.246;8.052;2023-03-25T11:58:25;98997.84;;;9.95;81.92
31483;BME280;18103;52.246;8.052;2023-03-25T12:01:00;98980.28;;;9.86;82.26
31483;BME280;18103;52.246;8.052;2023-03-25T12:03:30;98987.13;;;9.79;82.70
31483;BME280;18103;52.246;8.052;2023-03-25T12:05:59;98991.84;;;9.75;83.48
31483;BME280;18103;52.246;8.052;2023-03-25T12:08:29;98981.72;;;9.80;83.70
31483;BME280;18103;52.246;8.052;2023-03-25T12:11:08;98988.66;;;9.81;84.43
31483;BME280;18103;52.246;8.052;2023-03-25T12:17:09;98976.44;;;9.98;84.80
31483;BME280;18103;52.246;8.052;2023-03-25T12:25:33;98981.03;;;9.78;83.53
31483;BME280;18103;52.246;8.052;2023-03-25T12:48:01;98997.13;;;9.29;85.91
31483;BME280;18103;52.246;8.052;2023-03-25T12:50:51;99020.28;;;9.25;86.24
31483;BME280;18103;52.246;8.052;2023-03-25T12:53:41;99041.97;;;9.10;86.64
31483;BME280;18103;52.246;8.052;2023-03-25T12:56:16;99006.44;;;8.76;85.63
31483;BME280;18103;52.246;8.052;2023-03-25T13:07:12;98993.13;;;8.87;85.71
31483;BME280;18103;52.246;8.052;2023-03-25T13:15:15;98982.53;;;9.07;85.59
31483;BME280;18103;52.246;8.052;2023-03-25T13:17:46;98979.25;;;9.23;85.76
31483;BME280;18103;52.246;8.052;2023-03-25T13:20:17;98973.69;;;9.26;85.89
31483;BME280;18103;52.246;8.052;2023-03-25T13:22:48;98971.25;;;9.15;85.45
31483;BME280;18103;52.246;8.052;2023-03-25T13:27:49;98973.22;;;9.13;84.73
31483;BME280;18103;52.246;8.052;2023-03-25T13:30:25;98979.00;;;9.16;85.38
31483;BME280;18103;52.246;8.052;2023-03-25T13:32:54;98964.72;;;9.19;85.27
31483;BME280;18103;52.246;8.052;2023-03-25T13:35:52;98962.50;;;9.24;85.39
31483;BME280;18103;52.246;8.052;2023-03-25T13:38:27;98972.78;;;9.17;85.20
31483;BME280;18103;52.246;8.052;2023-03-25T13:41:20;98983.19;;;9.09;85.31
31483;BME280;18103;52.246;8.052;2023-03-25T13:46:40;98970.34;;;9.06;86.48
31483;BME280;18103;52.246;8.052;2023-03-25T13:51:38;98978.91;;;8.70;86.34
31483;BME280;18103;52.246;8.052;2023-03-25T14:08:15;98956.84;;;9.19;88.05
31483;BME280;18103;52.246;8.052;2023-03-25T14:13:53;98945.31;;;9.48;86.80
31483;BME280;18103;52.246;8.052;2023-03-25T14:16:28;98946.00;;;9.68;85.65
31483;BME280;18103;52.246;8.052;2023-03-25T14:19:03;98938.25;;;9.66;86.60
31483;BME280;18103;52.246;8.052;2023-03-25T14:26:35;98941.75;;;9.67;85.56
31483;BME280;18103;52.246;8.052;2023-03-25T14:29:17;98939.75;;;9.51;86.38
31483;BME280;18103;52.246;8.052;2023-03-25T14:32:04;98976.38;;;9.44;86.88
31483;BME280;18103;52.246;8.052;2023-03-25T14:34:30;98971.88;;;9.36;87.68
31483;BME280;18103;52.246;8.052;2023-03-25T14:44:24;98979.72;;;8.71;85.40
31483;BME280;18103;52.246;8.052;2023-03-25T14:52:16;98950.75;;;8.81;88.43
31483;BME280;18103;52.246;8.052;2023-03-25T14:54:43;98960.34;;;9.10;88.78
31483;BME280;18103;52.246;8.052;2023-03-25T14:57:16;98942.59;;;9.12;87.38
31483;BME280;18103;52.246;8.052;2023-03-25T14:59:47;98929.28;;;9.13;85.79
31483;BME280;18103;52.246;8.052;2023-03-25T15:02:18;98940.38;;;9.17;86.52
31483;BME280;18103;52.246;8.052;2023-03-25T15:04:55;98941.75;;;9.21;86.12
31483;BME280;18103;52.246;8.052;2023-03-25T15:07:47;98928.13;;;9.25;85.53
31483;BME280;18103;52.246;8.052;2023-03-25T15:10:30;98916.25;;;9.39;85.92
31483;BME280;18103;52.246;8.052;2023-03-25T15:13:02;98917.22;;;9.38;86.20
31483;BME280;18103;52.246;8.052;2023-03-25T15:15:33;98931.25;;;9.39;85.91
31483;BME280;18103;52.246;8.052;2023-03-25T15:23:50;98935.31;;;9.51;85.73
31483;BME280;18103;52.246;8.052;2023-03-25T15:26:26;98932.81;;;9.50;85.23
31483;BME280;18103;52.246;8.052;2023-03-25T15:29:03;98926.50;;;9.61;85.19
31483;BME280;18103;52.246;8.052;2023-03-25T15:53:29;98924.94;;;9.68;83.78
31483;BME280;18103;52.246;8.052;2023-03-25T15:56:09;98923.97;;;9.69;83.97
31483;BME280;18103;52.246;8.052;2023-03-25T15:59:01;98929.84;;;9.63;83.51
31483;BME280;18103;52.246;8.052;2023-03-25T16:01:35;98929.31;;;9.59;83.65
31483;BME280;18103;52.246;8.052;2023-03-25T16:04:13;98952.91;;;9.51;84.19
31483;BME280;18103;52.246;8.052;2023-03-25T16:06:45;98946.06;;;9.58;83.75
31483;BME280;18103;52.246;8.052;2023-03-25T16:09:15;98935.44;;;9.50;83.84
31483;BME280;18103;52.246;8.052;2023-03-25T16:11:43;98939.75;;;9.51;83.76
31483;BME280;18103;52.246;8.052;2023-03-25T16:14:15;98942.53;;;9.49;83.49
31483;BME280;18103;52.246;8.052;2023-03-25T16:16:54;98950.03;;;9.44;83.59
31483;BME280;18103;52.246;8.052;2023-03-25T16:25:01;98949.03;;;9.27;85.77